createdAt,value
2023-05-23T06:09:19.879Z,3.55
2023-05-23T06:11:47.161Z,4.30
2023-05-23T06:14:14.286Z,6.13
2023-05-23T06:16:44.573Z,4.85
2023-05-23T06:19:11.638Z,4.97
2023-05-23T06:21:39.925Z,4.72
2023-05-23T06:24:09.101Z,5.07
2023-05-23T06:26:37.569Z,5.80
2023-05-23T06:29:04.258Z,5.90
2023-05-23T06:31:31.059Z,4.70
2023-05-23T06:33:57.929Z,4.70
2023-05-23T06:36:24.535Z,5.43
2023-05-23T06:38:51.140Z,5.53
2023-05-23T06:41:17.764Z,4.85
2023-05-23T06:43:44.349Z,5.43
2023-05-23T06:46:31.606Z,5.25
2023-05-23T06:49:13.281Z,4.65
2023-05-23T06:51:41.815Z,4.93
2023-05-23T06:54:08.644Z,5.30
2023-05-23T06:56:35.822Z,5.03
2023-05-23T06:59:03.851Z,5.35
2023-05-23T07:01:30.971Z,4.93
2023-05-23T07:03:57.590Z,6.22
2023-05-23T07:06:24.510Z,5.65
2023-05-23T07:08:51.283Z,5.55
2023-05-23T07:11:17.941Z,5.07
2023-05-23T07:13:50.299Z,6.03
2023-05-23T07:16:22.696Z,6.20
2023-05-23T07:19:01.792Z,5.32
2023-05-23T07:21:28.878Z,5.13
2023-05-23T07:23:55.986Z,5.28
2023-05-23T07:26:22.980Z,5.88
2023-05-23T07:28:53.933Z,5.63
2023-05-23T07:31:20.541Z,6.22
2023-05-23T07:33:47.183Z,5.93
2023-05-23T07:36:22.301Z,6.72
2023-05-23T07:38:49.250Z,5.95
2023-05-23T07:41:15.977Z,6.38
2023-05-23T07:43:42.726Z,5.50
2023-05-23T07:46:09.509Z,6.55
2023-05-23T07:48:37.534Z,6.22
2023-05-23T07:51:04.337Z,6.63
2023-05-23T07:53:31.195Z,6.63
2023-05-23T07:55:58.357Z,6.47
2023-05-23T07:58:28.030Z,6.40
2023-05-23T08:00:54.660Z,6.47
2023-05-23T08:03:40.076Z,6.68
2023-05-23T08:06:14.211Z,6.25
2023-05-23T08:08:41.193Z,6.05
2023-05-23T08:11:08.475Z,5.63
2023-05-23T08:13:40.957Z,6.35
2023-05-23T08:16:28.012Z,6.90
2023-05-23T08:18:54.927Z,6.68
2023-05-23T08:21:21.591Z,6.53
2023-05-23T08:23:48.514Z,6.38
2023-05-23T08:26:15.482Z,6.45
2023-05-23T08:28:42.133Z,5.70
2023-05-23T08:31:08.717Z,5.30
2023-05-23T08:33:35.458Z,6.28
2023-05-23T08:36:02.056Z,6.32
2023-05-23T08:38:29.078Z,6.10
2023-05-23T08:41:31.356Z,6.00
2023-05-23T08:44:05.194Z,5.47
2023-05-23T08:46:49.878Z,5.65
2023-05-23T08:49:28.205Z,5.32
2023-05-23T08:52:01.466Z,6.07
2023-05-23T08:54:29.508Z,5.82
2023-05-23T08:56:56.162Z,5.75
2023-05-23T08:59:23.694Z,5.10
2023-05-23T09:01:52.129Z,5.97
2023-05-23T09:04:18.879Z,6.00
2023-05-23T09:06:59.806Z,6.07
2023-05-23T09:09:26.463Z,5.75
2023-05-23T09:11:55.349Z,6.07
2023-05-23T09:14:22.531Z,5.68
2023-05-23T09:16:51.571Z,6.55
2023-05-23T09:19:22.230Z,6.07
2023-05-23T09:21:55.499Z,6.22
2023-05-23T09:24:34.923Z,7.55
2023-05-23T09:27:03.005Z,6.32
2023-05-23T09:29:30.720Z,7.03
2023-05-23T09:32:11.074Z,6.18
2023-05-23T09:34:59.193Z,6.93
2023-05-23T09:37:34.710Z,6.32
2023-05-23T09:40:07.157Z,6.30
2023-05-23T09:42:34.341Z,6.55
2023-05-23T09:45:04.009Z,6.93
2023-05-23T09:47:31.816Z,6.03
2023-05-23T09:49:58.759Z,6.60
2023-05-23T09:52:26.312Z,6.50
2023-05-23T09:54:53.934Z,7.53
2023-05-23T09:57:22.972Z,6.50
2023-05-23T09:59:54.433Z,8.90
2023-05-23T10:02:53.888Z,8.02
2023-05-23T10:05:50.218Z,7.60
2023-05-23T10:08:31.214Z,7.22
2023-05-23T10:10:57.713Z,7.00
2023-05-23T10:13:28.832Z,7.45
2023-05-23T10:16:07.029Z,8.02
2023-05-23T10:18:42.335Z,7.15
2023-05-23T10:21:15.576Z,7.22
2023-05-23T10:23:42.640Z,6.97
2023-05-23T10:26:10.561Z,7.55
2023-05-23T10:28:37.540Z,7.40
2023-05-23T10:31:04.322Z,7.22
2023-05-23T10:33:40.723Z,7.00
2023-05-23T10:36:17.769Z,6.63
2023-05-23T10:38:51.270Z,6.47
2023-05-23T10:44:20.406Z,7.18
2023-05-23T10:47:04.517Z,7.28
2023-05-23T10:52:05.049Z,6.03
2023-05-23T10:54:56.134Z,6.70
2023-05-23T10:57:29.505Z,6.38
2023-05-23T10:59:56.494Z,6.50
2023-05-23T11:02:28.047Z,6.75
2023-05-23T11:05:22.191Z,7.13
2023-05-23T11:08:14.509Z,6.90
2023-05-23T11:10:56.055Z,6.40
2023-05-23T11:13:23.451Z,6.72
2023-05-23T11:15:50.698Z,6.30
2023-05-23T11:18:24.694Z,7.70
2023-05-23T11:20:54.391Z,5.75
2023-05-23T11:23:22.058Z,5.13
2023-05-23T11:25:50.786Z,5.82
2023-05-23T11:28:18.091Z,5.90
2023-05-23T11:30:48.105Z,6.35
2023-05-23T11:33:16.386Z,6.00
2023-05-23T11:35:48.161Z,5.60
2023-05-23T11:38:16.645Z,5.93
2023-05-23T11:40:46.244Z,6.03
2023-05-23T11:43:17.814Z,5.45
2023-05-23T11:45:46.866Z,5.00
2023-05-23T11:48:16.621Z,5.38
2023-05-23T11:50:54.106Z,5.07
2023-05-23T11:53:25.065Z,6.05
2023-05-23T11:55:58.425Z,4.75
2023-05-23T11:58:36.043Z,6.00
2023-05-23T12:01:13.509Z,5.10
2023-05-23T12:03:47.746Z,5.45
2023-05-23T12:06:21.804Z,4.68
2023-05-23T12:08:48.391Z,5.22
2023-05-23T12:11:15.218Z,4.72
2023-05-23T12:13:42.345Z,6.00
2023-05-23T12:16:09.274Z,6.13
2023-05-23T12:18:37.887Z,5.45
2023-05-23T12:21:07.950Z,6.43
2023-05-23T12:23:35.765Z,4.95
2023-05-23T12:26:06.959Z,5.53
2023-05-23T12:28:45.128Z,5.45
2023-05-23T12:31:33.316Z,4.55
2023-05-23T12:33:59.915Z,4.93
2023-05-23T12:36:29.009Z,4.57
2023-05-23T12:39:02.885Z,5.32
2023-05-23T12:41:29.882Z,5.28
2023-05-23T12:43:56.974Z,5.43
2023-05-23T12:46:25.400Z,5.18
2023-05-23T12:48:53.125Z,4.80
2023-05-23T12:51:20.980Z,5.18
2023-05-23T12:53:48.362Z,4.82
2023-05-23T12:56:14.965Z,4.70
2023-05-23T12:58:41.872Z,5.18
2023-05-23T13:01:09.113Z,4.60
2023-05-23T13:03:36.600Z,4.75
2023-05-23T13:06:03.271Z,4.50
2023-05-23T13:08:29.853Z,4.55
2023-05-23T13:10:57.181Z,5.25
2023-05-23T13:13:23.910Z,4.57
2023-05-23T13:15:51.646Z,4.53
2023-05-23T13:18:18.688Z,4.60
2023-05-23T13:20:46.284Z,4.15
2023-05-23T13:23:12.966Z,4.15
2023-05-23T13:25:39.693Z,3.80
2023-05-23T13:28:06.620Z,3.85
2023-05-23T13:30:33.588Z,4.18
2023-05-23T13:33:00.445Z,5.00
2023-05-23T13:35:27.079Z,4.15
2023-05-23T13:37:53.717Z,3.80
2023-05-23T13:40:21.619Z,3.55
2023-05-23T13:42:51.042Z,3.90
2023-05-23T13:45:18.423Z,3.72
2023-05-23T13:47:46.281Z,3.83
2023-05-23T13:50:12.911Z,3.83
2023-05-23T13:52:42.167Z,4.22
2023-05-23T13:55:11.054Z,3.22
2023-05-23T13:57:37.708Z,4.30
2023-05-23T14:00:05.313Z,3.60
2023-05-23T14:02:32.141Z,4.30
2023-05-23T14:04:58.937Z,3.92
2023-05-23T14:07:25.621Z,4.38
2023-05-23T14:09:52.257Z,4.20
2023-05-23T14:12:25.044Z,5.03
